createdAt,value
2017-07-18T00:00:55.333Z,1012.92
2017-07-18T00:01:55.290Z,1012.93
2017-07-18T00:02:55.308Z,1012.96
2017-07-18T00:03:55.357Z,1012.95
2017-07-18T00:04:55.320Z,1012.93
2017-07-18T00:05:55.406Z,1012.90
2017-07-18T00:06:55.404Z,1012.92
2017-07-18T00:07:55.353Z,1012.89
2017-07-18T00:08:55.345Z,1012.92
2017-07-18T00:09:55.313Z,1012.96
2017-07-18T00:10:55.421Z,1012.93
2017-07-18T00:11:55.324Z,1012.96
2017-07-18T00:12:55.385Z,1012.90
2017-07-18T00:13:55.419Z,1012.89
2017-07-18T00:14:55.340Z,1012.89
2017-07-18T00:15:55.293Z,1012.92
2017-07-18T00:16:55.342Z,1012.90
2017-07-18T00:17:55.316Z,1012.97
2017-07-18T00:18:55.341Z,1012.91
2017-07-18T00:19:55.342Z,1012.92
2017-07-18T00:20:55.343Z,1012.91
2017-07-18T00:21:55.346Z,1012.90
2017-07-18T00:22:55.349Z,1012.87
2017-07-18T00:23:55.351Z,1012.98
2017-07-18T00:24:55.358Z,1012.94
2017-07-18T00:25:55.379Z,1012.96
2017-07-18T00:26:55.403Z,1012.96
2017-07-18T00:27:55.396Z,1012.96
2017-07-18T00:28:55.399Z,1012.97
2017-07-18T00:29:55.333Z,1012.99
2017-07-18T00:30:55.325Z,1012.96
2017-07-18T00:31:55.360Z,1012.98
2017-07-18T00:32:55.366Z,1012.95
2017-07-18T00:33:55.444Z,1012.97
2017-07-18T00:34:55.394Z,1012.97
2017-07-18T00:35:55.420Z,1012.93
2017-07-18T00:36:55.335Z,1012.94
2017-07-18T00:37:55.360Z,1012.99
2017-07-18T00:38:55.374Z,1013.00
2017-07-18T00:39:55.430Z,1012.96
2017-07-18T00:40:55.373Z,1012.96
2017-07-18T00:41:55.366Z,1012.98
2017-07-18T00:42:55.427Z,1013.01
2017-07-18T00:43:55.367Z,1012.88
2017-07-18T00:44:55.393Z,1012.93
2017-07-18T00:45:55.434Z,1012.93
2017-07-18T00:46:55.345Z,1012.91
2017-07-18T00:47:55.342Z,1012.91
2017-07-18T00:48:55.347Z,1012.92
2017-07-18T00:49:55.439Z,1012.97
2017-07-18T00:50:55.339Z,1012.95
2017-07-18T00:51:55.370Z,1012.94
2017-07-18T00:52:55.379Z,1012.93
2017-07-18T00:53:55.433Z,1012.99
2017-07-18T00:54:55.409Z,1012.92
2017-07-18T00:55:55.379Z,1012.93
2017-07-18T00:56:55.436Z,1012.95
2017-07-18T00:57:55.475Z,1012.95
2017-07-18T00:58:55.351Z,1012.91
2017-07-18T00:59:55.402Z,1012.94
2017-07-18T01:00:55.384Z,1012.93
2017-07-18T01:01:55.400Z,1012.87
2017-07-18T01:02:55.413Z,1012.88
2017-07-18T01:03:55.386Z,1012.91
2017-07-18T01:04:55.401Z,1012.88
2017-07-18T01:05:55.426Z,1012.88
2017-07-18T01:06:55.343Z,1012.92
2017-07-18T01:07:55.374Z,1012.91
2017-07-18T01:08:55.406Z,1012.94
2017-07-18T01:09:55.405Z,1012.94
2017-07-18T01:10:55.413Z,1012.90
2017-07-18T01:11:55.346Z,1012.86
2017-07-18T01:12:55.410Z,1012.82
2017-07-18T01:13:55.411Z,1012.86
2017-07-18T01:14:55.410Z,1012.83
2017-07-18T01:15:55.349Z,1012.87
2017-07-18T01:16:55.362Z,1012.86
2017-07-18T01:17:55.381Z,1012.87
2017-07-18T01:18:55.350Z,1012.81
2017-07-18T01:19:55.349Z,1012.86
2017-07-18T01:20:55.414Z,1012.81
2017-07-18T01:21:55.354Z,1012.81
2017-07-18T01:22:55.416Z,1012.80
2017-07-18T01:23:55.378Z,1012.79
2017-07-18T01:24:55.392Z,1012.77
2017-07-18T01:25:55.394Z,1012.77
2017-07-18T01:26:55.372Z,1012.81
2017-07-18T01:27:55.397Z,1012.80
2017-07-18T01:28:55.396Z,1012.82
2017-07-18T01:29:55.385Z,1012.75
2017-07-18T01:30:55.393Z,1012.84
2017-07-18T01:31:55.451Z,1012.80
2017-07-18T01:32:55.389Z,1012.74
2017-07-18T01:33:55.425Z,1012.80
2017-07-18T01:34:55.420Z,1012.78
2017-07-18T01:35:55.422Z,1012.77
2017-07-18T01:36:55.427Z,1012.73
2017-07-18T01:37:55.388Z,1012.77
2017-07-18T01:38:55.389Z,1012.73
2017-07-18T01:39:55.423Z,1012.80
2017-07-18T01:40:55.365Z,1012.80
2017-07-18T01:41:55.361Z,1012.80
2017-07-18T01:42:55.395Z,1012.76
2017-07-18T01:43:55.392Z,1012.82
2017-07-18T01:44:55.441Z,1012.79
2017-07-18T01:45:55.439Z,1012.76
2017-07-18T01:46:55.445Z,1012.78
2017-07-18T01:47:55.414Z,1012.75
2017-07-18T01:48:55.407Z,1012.77
2017-07-18T01:49:55.430Z,1012.76
2017-07-18T01:50:55.445Z,1012.78
2017-07-18T01:51:55.451Z,1012.80
2017-07-18T01:52:55.414Z,1012.78
2017-07-18T01:53:55.467Z,1012.78
2017-07-18T01:54:55.386Z,1012.79
2017-07-18T01:55:55.438Z,1012.83
2017-07-18T01:56:55.414Z,1012.76
2017-07-18T01:57:55.381Z,1012.75
2017-07-18T01:58:55.385Z,1012.74
2017-07-18T01:59:55.506Z,1012.74
2017-07-18T02:00:55.416Z,1012.79
2017-07-18T02:01:55.455Z,1012.73
2017-07-18T02:02:55.382Z,1012.79
2017-07-18T02:03:55.442Z,1012.80
2017-07-18T02:04:55.409Z,1012.78
2017-07-18T02:05:55.437Z,1012.81
2017-07-18T02:06:55.477Z,1012.80
2017-07-18T02:07:55.427Z,1012.76
2017-07-18T02:08:55.419Z,1012.80
2017-07-18T02:09:55.416Z,1012.76
2017-07-18T02:10:55.460Z,1012.82
2017-07-18T02:11:55.481Z,1012.82
2017-07-18T02:12:55.423Z,1012.80
2017-07-18T02:13:55.492Z,1012.76
2017-07-18T02:14:55.441Z,1012.78
2017-07-18T02:15:55.444Z,1012.82
2017-07-18T02:16:55.439Z,1012.76
2017-07-18T02:17:55.413Z,1012.76
2017-07-18T02:18:55.423Z,1012.78
2017-07-18T02:19:55.415Z,1012.78
2017-07-18T02:20:55.410Z,1012.75
2017-07-18T02:21:55.419Z,1012.73
2017-07-18T02:22:55.388Z,1012.74
2017-07-18T02:23:55.448Z,1012.74
2017-07-18T02:24:55.450Z,1012.71
2017-07-18T02:25:55.392Z,1012.70
2017-07-18T02:26:55.402Z,1012.67
2017-07-18T02:27:55.449Z,1012.74
2017-07-18T02:28:55.425Z,1012.71
2017-07-18T02:29:55.452Z,1012.67
2017-07-18T02:30:55.423Z,1012.78
2017-07-18T02:31:55.393Z,1012.72
2017-07-18T02:32:55.394Z,1012.72
2017-07-18T02:33:55.392Z,1012.66
2017-07-18T02:34:55.400Z,1012.69
2017-07-18T02:35:55.345Z,1012.65
2017-07-18T02:36:55.401Z,1012.67
2017-07-18T02:37:55.399Z,1012.65
2017-07-18T02:38:55.455Z,1012.65
2017-07-18T02:39:55.386Z,1012.64
2017-07-18T02:40:55.341Z,1012.62
2017-07-18T02:41:55.385Z,1012.59
2017-07-18T02:42:55.389Z,1012.60
2017-07-18T02:43:55.423Z,1012.57
2017-07-18T02:44:55.401Z,1012.57
2017-07-18T02:45:55.401Z,1012.59
2017-07-18T02:46:55.463Z,1012.57
2017-07-18T02:47:55.400Z,1012.55
2017-07-18T02:48:55.488Z,1012.59
2017-07-18T02:49:55.404Z,1012.60
2017-07-18T02:50:55.431Z,1012.61
2017-07-18T02:51:55.466Z,1012.61
2017-07-18T02:52:55.432Z,1012.62
2017-07-18T02:53:55.430Z,1012.55
2017-07-18T02:54:55.385Z,1012.60
2017-07-18T02:55:55.434Z,1012.64
2017-07-18T02:56:55.427Z,1012.58
2017-07-18T02:57:55.479Z,1012.66
2017-07-18T02:58:55.378Z,1012.59
2017-07-18T02:59:55.382Z,1012.62
2017-07-18T03:00:55.440Z,1012.67
2017-07-18T03:01:55.392Z,1012.67
2017-07-18T03:02:55.415Z,1012.65
2017-07-18T03:03:55.389Z,1012.68
2017-07-18T03:04:55.418Z,1012.68
2017-07-18T03:05:55.436Z,1012.65
2017-07-18T03:06:55.447Z,1012.67
2017-07-18T03:07:55.411Z,1012.70
2017-07-18T03:08:55.441Z,1012.69
2017-07-18T03:09:55.413Z,1012.72
2017-07-18T03:10:55.477Z,1012.72
2017-07-18T03:11:55.415Z,1012.69
2017-07-18T03:12:55.478Z,1012.69
2017-07-18T03:13:55.472Z,1012.74
2017-07-18T03:14:55.502Z,1012.74
2017-07-18T03:15:55.415Z,1012.71
2017-07-18T03:16:55.420Z,1012.77
2017-07-18T03:17:55.420Z,1012.72
2017-07-18T03:18:55.475Z,1012.73
2017-07-18T03:19:55.445Z,1012.70
2017-07-18T03:20:55.420Z,1012.74
2017-07-18T03:21:55.417Z,1012.72
2017-07-18T03:22:55.423Z,1012.74
2017-07-18T03:23:55.448Z,1012.80
2017-07-18T03:24:55.506Z,1012.77
2017-07-18T03:25:55.495Z,1012.72
2017-07-18T03:26:55.465Z,1012.73
2017-07-18T03:27:55.530Z,1012.71
2017-07-18T03:28:55.524Z,1012.71
2017-07-18T03:29:55.531Z,1012.71
2017-07-18T03:30:55.490Z,1012.69
2017-07-18T03:31:55.534Z,1012.69
2017-07-18T03:32:55.473Z,1012.67
2017-07-18T03:33:55.533Z,1012.77
2017-07-18T03:34:55.490Z,1012.75
2017-07-18T03:35:55.430Z,1012.73
2017-07-18T03:36:55.433Z,1012.73
2017-07-18T03:37:55.494Z,1012.75
2017-07-18T03:38:55.432Z,1012.78
2017-07-18T03:39:55.456Z,1012.75
2017-07-18T03:40:55.501Z,1012.78
2017-07-18T03:41:55.500Z,1012.80
2017-07-18T03:42:55.492Z,1012.83
2017-07-18T03:43:55.437Z,1012.87
2017-07-18T03:44:55.513Z,1012.88
2017-07-18T03:45:55.437Z,1012.89
2017-07-18T03:46:55.533Z,1012.85
2017-07-18T03:47:55.445Z,1012.83
2017-07-18T03:48:55.504Z,1012.84
2017-07-18T03:49:55.515Z,1012.86
2017-07-18T03:50:55.471Z,1012.85
2017-07-18T03:51:55.443Z,1012.89
2017-07-18T03:52:55.540Z,1012.88
2017-07-18T03:53:55.484Z,1012.93
2017-07-18T03:54:55.454Z,1012.93
2017-07-18T03:55:55.376Z,1012.94
2017-07-18T03:56:55.383Z,1012.91
2017-07-18T03:57:55.380Z,1012.99
2017-07-18T03:58:55.462Z,1012.93
2017-07-18T03:59:55.445Z,1012.93
2017-07-18T04:00:55.460Z,1012.94
2017-07-18T04:01:55.458Z,1012.95
2017-07-18T04:02:55.445Z,1012.92
2017-07-18T04:03:55.447Z,1012.96
2017-07-18T04:04:55.444Z,1012.97
2017-07-18T04:05:55.534Z,1012.96
2017-07-18T04:06:55.520Z,1012.97
2017-07-18T04:07:55.506Z,1012.95
2017-07-18T04:08:55.479Z,1012.95
2017-07-18T04:09:55.515Z,1013.01
2017-07-18T04:10:55.516Z,1013.03
2017-07-18T04:11:55.542Z,1012.96
2017-07-18T04:12:55.540Z,1012.95
2017-07-18T04:13:55.453Z,1012.95
2017-07-18T04:14:55.453Z,1012.94
2017-07-18T04:15:55.450Z,1012.93
2017-07-18T04:16:55.518Z,1012.91
2017-07-18T04:17:55.602Z,1012.87
2017-07-18T04:18:55.485Z,1012.89
2017-07-18T04:19:55.522Z,1012.85
2017-07-18T04:20:55.487Z,1012.80
2017-07-18T04:21:55.481Z,1012.83
2017-07-18T04:22:55.481Z,1012.76
2017-07-18T04:23:55.469Z,1012.75
2017-07-18T04:24:55.475Z,1012.75
2017-07-18T04:25:55.479Z,1012.78
2017-07-18T04:26:55.412Z,1012.78
2017-07-18T04:27:55.411Z,1012.81
2017-07-18T04:28:55.414Z,1012.75
2017-07-18T04:29:55.459Z,1012.77
2017-07-18T04:30:55.479Z,1012.81
2017-07-18T04:31:55.437Z,1012.81
2017-07-18T04:32:55.463Z,1012.82
2017-07-18T04:33:55.434Z,1012.81
2017-07-18T04:34:55.497Z,1012.81
2017-07-18T04:35:55.456Z,1012.76
2017-07-18T04:36:55.487Z,1012.79
2017-07-18T04:37:55.492Z,1012.75
2017-07-18T04:38:55.460Z,1012.80
2017-07-18T04:39:55.488Z,1012.81
2017-07-18T04:40:55.522Z,1012.82
2017-07-18T04:41:55.530Z,1012.81
2017-07-18T04:42:55.465Z,1012.77
2017-07-18T04:43:55.526Z,1012.80
2017-07-18T04:44:55.463Z,1012.79
2017-07-18T04:45:55.479Z,1012.77
2017-07-18T04:46:55.540Z,1012.79
2017-07-18T04:47:55.536Z,1012.76
2017-07-18T04:48:55.536Z,1012.70
2017-07-18T04:49:55.475Z,1012.75
2017-07-18T04:50:55.483Z,1012.74
2017-07-18T04:51:55.542Z,1012.75
2017-07-18T04:52:55.602Z,1012.75
2017-07-18T04:53:55.480Z,1012.76
2017-07-18T04:54:55.572Z,1012.74
2017-07-18T04:55:55.507Z,1012.72
2017-07-18T04:56:55.480Z,1012.74
2017-07-18T04:57:55.541Z,1012.74
2017-07-18T04:58:55.508Z,1012.69
2017-07-18T04:59:55.519Z,1012.66
2017-07-18T05:00:55.519Z,1012.74
2017-07-18T05:01:55.569Z,1012.69
2017-07-18T05:02:55.555Z,1012.68
2017-07-18T05:03:55.548Z,1012.69
2017-07-18T05:04:55.566Z,1012.70
2017-07-18T05:05:55.569Z,1012.66
2017-07-18T05:06:55.491Z,1012.72
2017-07-18T05:07:55.557Z,1012.67
2017-07-18T05:08:55.505Z,1012.72
2017-07-18T05:09:55.481Z,1012.71
2017-07-18T05:10:55.591Z,1012.70
2017-07-18T05:11:55.581Z,1012.71
2017-07-18T05:12:55.490Z,1012.69
2017-07-18T05:13:55.574Z,1012.73
2017-07-18T05:14:55.488Z,1012.69
2017-07-18T05:15:55.542Z,1012.70
2017-07-18T05:16:55.495Z,1012.68
2017-07-18T05:17:55.497Z,1012.67
2017-07-18T05:18:55.495Z,1012.65
2017-07-18T05:19:55.581Z,1012.67
2017-07-18T05:20:55.531Z,1012.61
2017-07-18T05:21:55.581Z,1012.70
2017-07-18T05:22:55.590Z,1012.70
2017-07-18T05:23:55.568Z,1012.71
2017-07-18T05:24:55.589Z,1012.68
2017-07-18T05:25:55.484Z,1012.75
2017-07-18T05:26:55.655Z,1012.65
2017-07-18T05:27:55.517Z,1012.73
2017-07-18T05:28:55.518Z,1012.68
2017-07-18T05:29:55.556Z,1012.66
2017-07-18T05:30:55.486Z,1012.66
2017-07-18T05:31:55.515Z,1012.62
2017-07-18T05:32:55.555Z,1012.64
2017-07-18T05:33:55.519Z,1012.67
2017-07-18T05:34:55.488Z,1012.69
2017-07-18T05:35:55.565Z,1012.69
2017-07-18T05:36:55.536Z,1012.72
2017-07-18T05:37:55.534Z,1012.72
2017-07-18T05:38:55.548Z,1012.68
2017-07-18T05:39:55.540Z,1012.58
2017-07-18T05:40:55.555Z,1012.67
2017-07-18T05:41:55.604Z,1012.65
2017-07-18T05:42:55.508Z,1012.68
2017-07-18T05:43:55.540Z,1012.63
2017-07-18T05:44:55.513Z,1012.69
2017-07-18T05:45:55.524Z,1012.67
2017-07-18T05:46:55.542Z,1012.69
2017-07-18T05:47:55.541Z,1012.72
2017-07-18T05:48:55.563Z,1012.75
2017-07-18T05:49:55.599Z,1012.69
2017-07-18T05:50:55.602Z,1012.77
2017-07-18T05:51:55.512Z,1012.76
2017-07-18T05:52:55.544Z,1012.76
2017-07-18T05:53:55.511Z,1012.76
2017-07-18T05:54:55.566Z,1012.73
2017-07-18T05:55:55.520Z,1012.73
2017-07-18T05:56:55.574Z,1012.73
2017-07-18T05:57:55.546Z,1012.73
2017-07-18T05:58:55.548Z,1012.69
2017-07-18T05:59:55.536Z,1012.69
2017-07-18T06:00:55.603Z,1012.71
2017-07-18T06:01:55.522Z,1012.71
2017-07-18T06:02:55.541Z,1012.68
2017-07-18T06:03:55.543Z,1012.66
2017-07-18T06:04:55.591Z,1012.69
2017-07-18T06:05:55.524Z,1012.68
2017-07-18T06:06:55.480Z,1012.69
2017-07-18T06:07:55.514Z,1012.67
2017-07-18T06:08:55.498Z,1012.70
2017-07-18T06:09:55.418Z,1012.67
2017-07-18T06:10:55.501Z,1012.68
2017-07-18T06:11:55.508Z,1012.67
2017-07-18T06:12:55.514Z,1012.68
2017-07-18T06:13:55.509Z,1012.68
2017-07-18T06:14:55.421Z,1012.71
2017-07-18T06:15:55.591Z,1012.69
2017-07-18T06:16:55.594Z,1012.64
2017-07-18T06:17:55.533Z,1012.63
2017-07-18T06:18:55.594Z,1012.65
2017-07-18T06:19:55.711Z,1012.62
2017-07-18T06:20:55.560Z,1012.58
2017-07-18T06:21:55.561Z,1012.63
2017-07-18T06:22:55.619Z,1012.62
2017-07-18T06:23:55.616Z,1012.65
2017-07-18T06:24:55.535Z,1012.65
2017-07-18T06:25:55.561Z,1012.69
2017-07-18T06:26:55.528Z,1012.68
2017-07-18T06:27:55.615Z,1012.68
2017-07-18T06:28:55.547Z,1012.66
2017-07-18T06:29:55.584Z,1012.62
2017-07-18T06:30:55.532Z,1012.67
2017-07-18T06:31:55.622Z,1012.63
2017-07-18T06:32:55.570Z,1012.60
2017-07-18T06:33:55.568Z,1012.65
2017-07-18T06:34:55.535Z,1012.71
2017-07-18T06:35:55.551Z,1012.65
2017-07-18T06:36:55.557Z,1012.69
2017-07-18T06:37:55.502Z,1012.70
2017-07-18T06:38:55.599Z,1012.65
2017-07-18T06:39:55.557Z,1012.70
2017-07-18T06:40:55.563Z,1012.66
2017-07-18T06:41:55.602Z,1012.62
2017-07-18T06:42:55.509Z,1012.61
2017-07-18T06:43:55.557Z,1012.56
2017-07-18T06:44:55.516Z,1012.60
2017-07-18T06:45:55.598Z,1012.58
2017-07-18T06:46:55.537Z,1012.57
2017-07-18T06:47:55.597Z,1012.55
2017-07-18T06:48:55.568Z,1012.53
2017-07-18T06:49:55.530Z,1012.43
2017-07-18T06:50:55.568Z,1012.45
2017-07-18T06:51:55.600Z,1012.46
2017-07-18T06:52:55.566Z,1012.50
2017-07-18T06:53:55.546Z,1012.49
2017-07-18T06:54:55.569Z,1012.45
2017-07-18T06:55:55.546Z,1012.44
2017-07-18T06:56:55.569Z,1012.52
2017-07-18T06:57:55.560Z,1012.55
2017-07-18T06:58:55.578Z,1012.51
2017-07-18T06:59:55.545Z,1012.48
2017-07-18T07:00:55.612Z,1012.45
2017-07-18T07:01:55.583Z,1012.49
2017-07-18T07:02:55.620Z,1012.47
2017-07-18T07:03:55.526Z,1012.49
2017-07-18T07:04:55.570Z,1012.50
2017-07-18T07:05:55.576Z,1012.47
2017-07-18T07:06:55.571Z,1012.44
2017-07-18T07:07:55.529Z,1012.43
2017-07-18T07:08:55.551Z,1012.46
2017-07-18T07:09:55.571Z,1012.36
2017-07-18T07:10:55.587Z,1012.41
2017-07-18T07:11:55.572Z,1012.36
2017-07-18T07:12:55.573Z,1012.37
2017-07-18T07:13:55.553Z,1012.35
2017-07-18T07:14:55.701Z,1012.38
2017-07-18T07:15:55.590Z,1012.34
2017-07-18T07:16:55.570Z,1012.33
2017-07-18T07:17:55.622Z,1012.32
2017-07-18T07:18:55.653Z,1012.33
2017-07-18T07:19:55.557Z,1012.36
2017-07-18T07:20:55.623Z,1012.33
2017-07-18T07:21:55.590Z,1012.32
2017-07-18T07:22:55.618Z,1012.29
2017-07-18T07:23:55.582Z,1012.28
2017-07-18T07:24:55.605Z,1012.31
2017-07-18T07:25:55.542Z,1012.27
2017-07-18T07:26:55.596Z,1012.26
2017-07-18T07:27:55.536Z,1012.23
2017-07-18T07:28:55.569Z,1012.28
2017-07-18T07:29:55.532Z,1012.28
2017-07-18T07:30:55.591Z,1012.29
2017-07-18T07:31:55.568Z,1012.30
2017-07-18T07:32:55.586Z,1012.25
2017-07-18T07:33:55.570Z,1012.29
2017-07-18T07:34:55.521Z,1012.26
2017-07-18T07:35:55.587Z,1012.20
2017-07-18T07:36:55.598Z,1012.26
2017-07-18T07:37:55.565Z,1012.19
2017-07-18T07:38:55.613Z,1012.20
2017-07-18T07:39:55.550Z,1012.11
2017-07-18T07:40:55.597Z,1012.15
2017-07-18T07:41:55.635Z,1012.14
2017-07-18T07:42:55.542Z,1012.12
2017-07-18T07:43:55.549Z,1012.11
2017-07-18T07:44:55.573Z,1012.17
2017-07-18T07:45:55.630Z,1012.15
2017-07-18T07:46:55.611Z,1012.20
2017-07-18T07:47:55.580Z,1012.19
2017-07-18T07:48:55.603Z,1012.20
2017-07-18T07:49:55.668Z,1012.19
2017-07-18T07:50:55.654Z,1012.14
2017-07-18T07:51:55.668Z,1012.13
2017-07-18T07:52:55.667Z,1012.16
2017-07-18T07:53:55.612Z,1012.09
2017-07-18T07:54:55.669Z,1012.10
2017-07-18T07:55:55.579Z,1012.10
2017-07-18T07:56:55.620Z,1012.04
2017-07-18T07:57:55.607Z,1012.11
2017-07-18T07:58:55.585Z,1012.09
2017-07-18T07:59:55.583Z,1012.12
2017-07-18T08:00:55.682Z,1012.05
2017-07-18T08:01:55.659Z,1012.02
2017-07-18T08:02:55.610Z,1012.04
2017-07-18T08:03:55.637Z,1012.06
2017-07-18T08:04:55.616Z,1012.03
2017-07-18T08:05:55.615Z,1012.08
2017-07-18T08:06:55.655Z,1012.04
2017-07-18T08:07:55.614Z,1012.06
2017-07-18T08:08:55.651Z,1012.02
2017-07-18T08:09:55.618Z,1012.03
2017-07-18T08:10:55.592Z,1012.00
2017-07-18T08:11:55.606Z,1012.03
2017-07-18T08:12:55.685Z,1012.04
2017-07-18T08:13:55.681Z,1012.00
2017-07-18T08:14:55.685Z,1011.99
2017-07-18T08:15:55.667Z,1012.06
2017-07-18T08:16:55.647Z,1012.03
2017-07-18T08:17:55.581Z,1012.00
2017-07-18T08:18:55.604Z,1011.99
2017-07-18T08:19:55.645Z,1012.01
2017-07-18T08:20:55.648Z,1011.99
2017-07-18T08:21:55.584Z,1011.96
2017-07-18T08:22:55.583Z,1011.96
2017-07-18T08:23:55.653Z,1011.95
2017-07-18T08:24:55.631Z,1011.97
2017-07-18T08:25:55.614Z,1011.98
2017-07-18T08:26:55.692Z,1011.99
2017-07-18T08:27:55.695Z,1011.96
2017-07-18T08:28:55.663Z,1011.91
2017-07-18T08:29:55.651Z,1011.93
2017-07-18T08:30:55.636Z,1011.91
2017-07-18T08:31:55.609Z,1011.93
2017-07-18T08:32:55.606Z,1011.90
2017-07-18T08:33:55.692Z,1011.93
2017-07-18T08:34:55.663Z,1011.88
2017-07-18T08:35:55.699Z,1011.92
2017-07-18T08:36:55.625Z,1011.87
2017-07-18T08:37:55.696Z,1011.89
2017-07-18T08:38:55.626Z,1011.86
2017-07-18T08:39:55.672Z,1011.86
2017-07-18T08:40:55.938Z,1011.83
2017-07-18T08:41:55.610Z,1011.84
2017-07-18T08:42:55.631Z,1011.81
2017-07-18T08:43:55.609Z,1011.80
2017-07-18T08:44:55.608Z,1011.71
2017-07-18T08:45:55.795Z,1011.76
2017-07-18T08:46:55.607Z,1011.71
2017-07-18T08:47:55.669Z,1011.68
2017-07-18T08:48:55.643Z,1011.68
2017-07-18T08:49:55.663Z,1011.65
2017-07-18T08:50:55.697Z,1011.69
2017-07-18T08:51:55.618Z,1011.63
2017-07-18T08:52:55.706Z,1011.60
2017-07-18T08:53:55.646Z,1011.61
2017-07-18T08:54:55.661Z,1011.61
2017-07-18T08:55:55.631Z,1011.57
2017-07-18T08:56:55.651Z,1011.60
2017-07-18T08:57:55.647Z,1011.58
2017-07-18T08:58:55.650Z,1011.54
2017-07-18T08:59:55.654Z,1011.57
2017-07-18T09:00:55.621Z,1011.62
2017-07-18T09:01:55.622Z,1011.61
2017-07-18T09:02:55.703Z,1011.63
2017-07-18T09:03:55.618Z,1011.60
2017-07-18T09:04:55.603Z,1011.60
2017-07-18T09:05:55.555Z,1011.56
2017-07-18T09:06:55.516Z,1011.53
2017-07-18T09:07:55.561Z,1011.54
2017-07-18T09:08:55.506Z,1011.47
2017-07-18T09:09:55.573Z,1011.44
2017-07-18T09:10:55.567Z,1011.45
2017-07-18T09:11:55.555Z,1011.48
2017-07-18T09:12:55.560Z,1011.47
2017-07-18T09:13:55.646Z,1011.44
2017-07-18T09:14:55.624Z,1011.43
2017-07-18T09:15:55.581Z,1011.50
2017-07-18T09:16:55.599Z,1011.45
2017-07-18T09:17:55.625Z,1011.47
2017-07-18T09:18:55.651Z,1011.46
2017-07-18T09:19:55.655Z,1011.43
2017-07-18T09:20:55.631Z,1011.41
2017-07-18T09:21:55.650Z,1011.48
2017-07-18T09:22:55.626Z,1011.47
2017-07-18T09:23:55.694Z,1011.41
2017-07-18T09:24:55.693Z,1011.42
2017-07-18T09:25:55.725Z,1011.43
2017-07-18T09:26:55.658Z,1011.43
2017-07-18T09:27:55.630Z,1011.38
2017-07-18T09:28:55.705Z,1011.36
2017-07-18T09:29:55.690Z,1011.33
2017-07-18T09:30:55.662Z,1011.37
2017-07-18T09:31:55.707Z,1011.31
2017-07-18T09:32:55.633Z,1011.35
2017-07-18T09:33:55.657Z,1011.34
2017-07-18T09:34:55.726Z,1011.33
2017-07-18T09:35:55.670Z,1011.36
2017-07-18T09:36:55.664Z,1011.32
2017-07-18T09:37:55.635Z,1011.11
2017-07-18T09:38:55.671Z,1011.31
2017-07-18T09:39:55.637Z,1011.33
2017-07-18T09:40:55.699Z,1011.29
2017-07-18T09:41:55.698Z,1011.27
2017-07-18T09:42:55.675Z,1011.21
2017-07-18T09:43:55.608Z,1011.26
2017-07-18T09:44:55.666Z,1011.25
2017-07-18T09:45:55.664Z,1011.24
2017-07-18T09:46:55.658Z,1011.26
2017-07-18T09:47:55.647Z,1011.24
2017-07-18T09:48:55.616Z,1011.26
2017-07-18T09:49:55.615Z,1011.26
2017-07-18T09:50:55.651Z,1011.26
2017-07-18T09:51:55.673Z,1011.18
2017-07-18T09:52:55.643Z,1011.18
2017-07-18T09:53:55.661Z,1011.21
2017-07-18T09:54:55.667Z,1011.20
2017-07-18T09:55:55.712Z,1011.22
2017-07-18T09:56:55.646Z,1011.20
2017-07-18T09:57:55.627Z,1011.27
2017-07-18T09:58:55.616Z,1011.24
2017-07-18T09:59:55.716Z,1011.22
2017-07-18T10:00:55.625Z,1011.26
2017-07-18T10:01:55.648Z,1011.26
2017-07-18T10:02:55.648Z,1011.21
2017-07-18T10:03:55.737Z,1011.27
2017-07-18T10:04:55.693Z,1011.23
2017-07-18T10:05:55.709Z,1011.24
2017-07-18T10:06:55.685Z,1011.22
2017-07-18T10:07:55.748Z,1011.22
2017-07-18T10:08:55.682Z,1011.20
2017-07-18T10:09:55.730Z,1011.20
2017-07-18T10:10:55.688Z,1011.19
2017-07-18T10:11:55.684Z,1011.14
2017-07-18T10:12:55.743Z,1011.17
2017-07-18T10:13:55.751Z,1011.22
2017-07-18T10:14:55.722Z,1011.16
2017-07-18T10:15:55.742Z,1011.17
2017-07-18T10:16:55.748Z,1011.16
2017-07-18T10:17:55.728Z,1011.15
2017-07-18T10:18:55.748Z,1011.12
2017-07-18T10:19:55.726Z,1011.14
2017-07-18T10:20:55.721Z,1011.06
2017-07-18T10:21:55.696Z,1011.11
2017-07-18T10:22:55.729Z,1011.13
2017-07-18T10:23:55.662Z,1011.14
2017-07-18T10:24:55.655Z,1011.11
2017-07-18T10:25:55.687Z,1011.05
2017-07-18T10:26:55.663Z,1011.10
2017-07-18T10:27:55.712Z,1011.11
2017-07-18T10:28:55.730Z,1011.11
2017-07-18T10:29:55.690Z,1011.15
2017-07-18T10:30:55.724Z,1011.07
2017-07-18T10:31:55.722Z,1011.02
2017-07-18T10:32:55.725Z,1010.99
2017-07-18T10:33:55.662Z,1010.96
2017-07-18T10:34:55.666Z,1010.99
2017-07-18T10:35:55.679Z,1010.92
2017-07-18T10:36:55.668Z,1010.92
2017-07-18T10:37:55.659Z,1011.02
2017-07-18T10:38:55.727Z,1011.00
2017-07-18T10:39:55.732Z,1010.97
2017-07-18T10:40:55.672Z,1010.99
2017-07-18T10:41:55.695Z,1011.02
2017-07-18T10:42:55.700Z,1011.06
2017-07-18T10:43:55.733Z,1010.99
2017-07-18T10:44:55.729Z,1011.02
2017-07-18T10:45:55.736Z,1010.99
2017-07-18T10:46:55.732Z,1010.99
2017-07-18T10:47:55.732Z,1010.98
2017-07-18T10:48:55.751Z,1010.96
2017-07-18T10:49:55.687Z,1010.96
2017-07-18T10:50:55.741Z,1010.93
2017-07-18T10:51:55.744Z,1010.93
2017-07-18T10:52:55.686Z,1010.95
2017-07-18T10:53:55.688Z,1010.95
2017-07-18T10:54:55.755Z,1010.88
2017-07-18T10:55:55.686Z,1010.88
2017-07-18T10:56:55.772Z,1010.87
2017-07-18T10:57:55.720Z,1010.80
2017-07-18T10:58:55.747Z,1010.88
2017-07-18T10:59:55.690Z,1010.82
2017-07-18T11:00:55.754Z,1010.82
2017-07-18T11:01:55.780Z,1010.83
2017-07-18T11:02:55.750Z,1010.79
2017-07-18T11:03:55.712Z,1010.75
2017-07-18T11:04:55.741Z,1010.72
2017-07-18T11:05:55.747Z,1010.79
2017-07-18T11:06:55.690Z,1010.75
2017-07-18T11:07:55.695Z,1010.69
2017-07-18T11:08:55.717Z,1010.69
2017-07-18T11:09:55.779Z,1010.59
2017-07-18T11:10:55.692Z,1010.63
2017-07-18T11:11:55.719Z,1010.57
2017-07-18T11:12:55.697Z,1010.60
2017-07-18T11:13:55.729Z,1010.61
2017-07-18T11:14:55.680Z,1010.57
2017-07-18T11:15:55.682Z,1010.60
2017-07-18T11:16:55.711Z,1010.52
2017-07-18T11:17:55.711Z,1010.46
2017-07-18T11:18:55.695Z,1010.51
2017-07-18T11:19:55.750Z,1010.49
2017-07-18T11:20:55.691Z,1010.49
2017-07-18T11:21:55.751Z,1010.42
2017-07-18T11:22:55.716Z,1010.41
2017-07-18T11:23:55.756Z,1010.38
2017-07-18T11:24:55.693Z,1010.35
2017-07-18T11:25:55.697Z,1010.32
2017-07-18T11:26:55.762Z,1010.33
2017-07-18T11:27:55.697Z,1010.28
2017-07-18T11:28:55.763Z,1010.35
2017-07-18T11:29:55.726Z,1010.31
2017-07-18T11:30:55.707Z,1010.25
2017-07-18T11:31:55.667Z,1010.28
2017-07-18T11:32:55.724Z,1010.32
2017-07-18T11:33:55.699Z,1010.28
2017-07-18T11:34:55.723Z,1010.24
2017-07-18T11:35:55.766Z,1010.27
2017-07-18T11:36:55.723Z,1010.24
2017-07-18T11:37:55.704Z,1010.24
2017-07-18T11:38:55.714Z,1010.16
2017-07-18T11:39:55.779Z,1010.17
2017-07-18T11:40:55.685Z,1010.20
2017-07-18T11:41:55.717Z,1010.17
2017-07-18T11:42:55.688Z,1010.20
2017-07-18T11:43:55.687Z,1010.21
2017-07-18T11:44:55.784Z,1010.17
2017-07-18T11:45:55.765Z,1010.18
2017-07-18T11:46:55.708Z,1010.13
2017-07-18T11:47:55.771Z,1010.11
2017-07-18T11:48:55.775Z,1010.09
2017-07-18T11:49:55.714Z,1010.08
2017-07-18T11:50:55.770Z,1010.12
2017-07-18T11:51:55.749Z,1010.05
2017-07-18T11:52:55.808Z,1010.09
2017-07-18T11:53:55.796Z,1010.03
2017-07-18T11:54:55.744Z,1010.03
2017-07-18T11:55:55.784Z,1010.03
2017-07-18T11:56:55.789Z,1009.97
2017-07-18T11:57:55.785Z,1009.96
2017-07-18T11:58:55.782Z,1009.97
2017-07-18T11:59:55.808Z,1009.97
2017-07-18T12:00:55.783Z,1009.89
2017-07-18T12:01:55.722Z,1009.95
2017-07-18T12:02:55.750Z,1009.96
2017-07-18T12:03:55.748Z,1009.93
2017-07-18T12:04:55.757Z,1009.96
2017-07-18T12:05:55.787Z,1009.97